createdAt,value
2018-12-01T00:00:15.370Z,8.40
2018-12-01T00:02:43.773Z,8.40
2018-12-01T00:05:12.144Z,8.40
2018-12-01T00:07:40.549Z,8.40
2018-12-01T00:10:08.969Z,8.40
2018-12-01T00:12:37.345Z,8.40
2018-12-01T00:15:07.452Z,8.50
2018-12-01T00:17:35.801Z,8.40
2018-12-01T00:20:05.513Z,8.40
2018-12-01T00:22:33.886Z,8.40
2018-12-01T00:25:02.341Z,8.30
2018-12-01T00:27:30.781Z,8.30
2018-12-01T00:29:59.214Z,8.30
2018-12-01T00:32:27.664Z,8.30
2018-12-01T00:34:56.075Z,8.30
2018-12-01T00:37:24.452Z,8.40
2018-12-01T00:39:52.860Z,8.40
2018-12-01T00:42:21.235Z,8.40
2018-12-01T00:44:49.637Z,8.50
2018-12-01T00:47:18.039Z,8.50
2018-12-01T00:49:46.435Z,8.40
2018-12-01T00:52:14.940Z,8.40
2018-12-01T00:54:43.393Z,8.40
2018-12-01T00:57:11.781Z,8.50
2018-12-01T00:59:40.183Z,8.50
2018-12-01T01:02:12.915Z,8.50
2018-12-01T01:04:41.340Z,8.50
2018-12-01T01:07:09.760Z,8.40
2018-12-01T01:09:38.180Z,8.40
2018-12-01T01:12:06.605Z,8.30
2018-12-01T01:14:34.985Z,8.20
2018-12-01T01:17:03.383Z,8.20
2018-12-01T01:19:31.777Z,8.10
2018-12-01T01:22:00.202Z,8.00
2018-12-01T01:24:28.570Z,7.90
2018-12-01T01:26:56.975Z,7.90
2018-12-01T01:29:25.386Z,7.80
2018-12-01T01:31:53.770Z,7.70
2018-12-01T01:34:22.209Z,7.70
2018-12-01T01:36:50.613Z,7.70
2018-12-01T01:39:19.084Z,7.70
2018-12-01T01:41:47.421Z,7.70
2018-12-01T01:44:15.793Z,7.80
2018-12-01T01:46:44.199Z,7.70
2018-12-01T01:49:12.581Z,7.60
2018-12-01T01:51:40.985Z,7.50
2018-12-01T01:54:09.369Z,7.40
2018-12-01T01:56:37.879Z,7.30
2018-12-01T01:59:06.380Z,7.20
2018-12-01T02:01:34.743Z,7.20
2018-12-01T02:04:03.135Z,7.20
2018-12-01T02:06:31.522Z,7.10
2018-12-01T02:08:59.973Z,7.10
2018-12-01T02:11:28.425Z,7.10
2018-12-01T02:13:56.861Z,7.00
2018-12-01T02:16:25.251Z,7.00
2018-12-01T02:18:53.825Z,6.90
2018-12-01T02:21:23.062Z,6.90
2018-12-01T02:23:51.431Z,6.80
2018-12-01T02:26:19.801Z,6.80
2018-12-01T02:28:48.225Z,6.70
2018-12-01T02:31:16.675Z,6.80
2018-12-01T02:33:45.045Z,6.80
2018-12-01T02:36:13.605Z,6.80
2018-12-01T02:38:41.977Z,6.80
2018-12-01T02:41:10.419Z,6.90
2018-12-01T02:43:38.798Z,7.00
2018-12-01T02:47:15.221Z,7.10
2018-12-01T02:49:43.601Z,7.10
2018-12-01T02:52:12.013Z,7.20
2018-12-01T02:54:40.377Z,7.20
2018-12-01T02:57:08.798Z,7.30
2018-12-01T02:59:37.148Z,7.30
2018-12-01T03:02:05.813Z,7.30
2018-12-01T03:04:34.203Z,7.30
2018-12-01T03:07:02.650Z,7.30
2018-12-01T03:09:31.025Z,7.30
2018-12-01T03:11:59.466Z,7.30
2018-12-01T03:14:27.853Z,7.30
2018-12-01T03:16:56.276Z,7.30
2018-12-01T03:19:24.739Z,7.20
2018-12-01T03:21:53.123Z,7.30
2018-12-01T03:24:21.516Z,7.30
2018-12-01T03:26:49.863Z,7.20
2018-12-01T03:29:18.254Z,7.20
2018-12-01T03:31:46.649Z,7.20
2018-12-01T03:34:14.989Z,7.20
2018-12-01T03:36:43.333Z,7.10
2018-12-01T03:39:11.717Z,7.10
2018-12-01T03:41:40.073Z,7.00
2018-12-01T03:44:08.469Z,7.00
2018-12-01T03:46:36.848Z,6.90
2018-12-01T03:49:05.257Z,6.80
2018-12-01T03:51:33.741Z,6.80
2018-12-01T03:54:02.136Z,6.70
2018-12-01T03:56:30.521Z,6.70
2018-12-01T03:58:58.949Z,6.70
2018-12-01T04:01:27.623Z,6.70
2018-12-01T04:03:55.992Z,6.70
2018-12-01T04:06:24.361Z,6.70
2018-12-01T04:08:53.093Z,6.70
2018-12-01T04:11:21.479Z,6.70
2018-12-01T04:13:49.864Z,6.80
2018-12-01T04:16:18.264Z,6.90
2018-12-01T04:18:46.688Z,7.00
2018-12-01T04:21:15.164Z,7.10
2018-12-01T04:23:43.577Z,7.20
2018-12-01T04:26:11.985Z,7.20
2018-12-01T04:28:40.382Z,7.20
2018-12-01T04:31:08.774Z,7.20
2018-12-01T04:33:37.177Z,7.20
2018-12-01T04:36:05.754Z,7.20
2018-12-01T04:38:34.184Z,9.30
2018-12-01T04:41:02.671Z,7.20
2018-12-01T04:43:31.056Z,7.20
2018-12-01T04:45:59.457Z,7.10
2018-12-01T04:48:27.908Z,7.10
2018-12-01T04:50:56.356Z,7.10
2018-12-01T04:53:24.729Z,7.10
2018-12-01T04:55:53.094Z,7.10
2018-12-01T04:58:21.488Z,7.10
2018-12-01T05:00:49.922Z,7.20
2018-12-01T05:03:18.272Z,7.20
2018-12-01T05:05:46.686Z,7.30
2018-12-01T05:08:15.136Z,7.30
2018-12-01T05:10:43.555Z,7.40
2018-12-01T05:13:11.974Z,7.50
2018-12-01T05:15:40.434Z,7.50
2018-12-01T05:18:08.814Z,7.50
2018-12-01T05:20:37.233Z,7.50
2018-12-01T05:23:05.742Z,7.50
2018-12-01T05:25:34.148Z,7.60
2018-12-01T05:28:02.820Z,7.50
2018-12-01T05:30:31.214Z,7.50
2018-12-01T05:32:59.629Z,7.50
2018-12-01T05:35:28.114Z,7.50
2018-12-01T05:37:56.833Z,7.50
2018-12-01T05:40:25.235Z,7.40
2018-12-01T05:42:53.626Z,7.30
2018-12-01T05:45:22.410Z,7.30
2018-12-01T05:47:51.130Z,7.20
2018-12-01T05:50:25.330Z,7.10
2018-12-01T05:52:54.221Z,7.10
2018-12-01T05:55:22.598Z,7.10
2018-12-01T05:57:50.994Z,7.20
2018-12-01T06:00:19.612Z,7.10
2018-12-01T06:02:48.164Z,7.00
2018-12-01T06:05:16.828Z,7.10
2018-12-01T06:07:45.302Z,7.20
2018-12-01T06:10:18.208Z,7.20
2018-12-01T06:12:46.891Z,7.30
2018-12-01T06:15:15.777Z,7.30
2018-12-01T06:17:44.129Z,7.30
2018-12-01T06:20:13.086Z,7.40
2018-12-01T06:22:41.427Z,7.40
2018-12-01T06:25:10.529Z,7.40
2018-12-01T06:27:38.994Z,7.50
2018-12-01T06:30:12.691Z,7.50
2018-12-01T06:32:41.009Z,7.50
2018-12-01T06:35:09.481Z,7.50
2018-12-01T06:37:37.875Z,7.50
2018-12-01T06:40:08.304Z,7.60
2018-12-01T06:42:36.746Z,7.50
2018-12-01T06:45:06.070Z,7.50
2018-12-01T06:47:34.423Z,7.40
2018-12-01T06:50:03.185Z,7.30
2018-12-01T06:52:31.550Z,7.30
2018-12-01T06:54:59.942Z,7.30
2018-12-01T06:57:28.286Z,7.20
2018-12-01T06:59:56.681Z,7.20
2018-12-01T07:02:25.064Z,7.20
2018-12-01T07:04:53.476Z,7.20
2018-12-01T07:07:21.846Z,7.20
2018-12-01T07:09:50.205Z,7.20
2018-12-01T07:12:18.594Z,7.20
2018-12-01T07:14:47.115Z,7.30
2018-12-01T07:17:15.590Z,7.30
2018-12-01T07:19:43.973Z,7.30
2018-12-01T07:22:12.404Z,7.30
2018-12-01T07:24:40.801Z,7.30
2018-12-01T07:27:09.270Z,7.40
2018-12-01T07:29:37.626Z,7.40
2018-12-01T07:32:06.017Z,7.40
2018-12-01T07:34:34.654Z,7.50
2018-12-01T07:37:03.048Z,7.50
2018-12-01T07:39:31.498Z,7.40
2018-12-01T07:41:59.892Z,7.50
2018-12-01T07:44:28.429Z,7.50
2018-12-01T07:46:56.933Z,7.50
2018-12-01T07:49:25.331Z,7.60
2018-12-01T07:51:53.908Z,7.60
2018-12-01T07:54:22.344Z,7.70
2018-12-01T07:56:50.797Z,7.70
2018-12-01T07:59:19.225Z,7.70
2018-12-01T08:01:47.585Z,7.70
2018-12-01T08:04:16.021Z,7.80
2018-12-01T08:06:44.396Z,7.90
2018-12-01T08:09:12.845Z,8.00
2018-12-01T08:11:41.257Z,8.10
2018-12-01T08:14:09.650Z,8.10
2018-12-01T08:16:38.094Z,8.20
2018-12-01T08:19:06.520Z,8.40
2018-12-01T08:21:34.946Z,8.40
2018-12-01T08:24:03.463Z,8.40
2018-12-01T08:26:31.877Z,8.40
2018-12-01T08:29:00.286Z,8.40
2018-12-01T08:31:29.590Z,8.50
2018-12-01T08:33:57.049Z,8.60
2018-12-01T08:36:25.473Z,8.50
2018-12-01T08:38:53.928Z,8.60
2018-12-01T08:41:22.318Z,8.50
2018-12-01T08:43:50.973Z,8.50
2018-12-01T08:46:19.409Z,8.50
2018-12-01T08:48:47.947Z,8.50
2018-12-01T08:51:16.409Z,8.50
2018-12-01T08:53:44.887Z,8.50
2018-12-01T08:56:13.313Z,8.50
2018-12-01T08:58:41.782Z,8.50
2018-12-01T09:01:10.228Z,8.50
2018-12-01T09:03:38.610Z,8.50
2018-12-01T09:06:06.999Z,8.60
2018-12-01T09:08:35.449Z,8.80
2018-12-01T09:11:03.922Z,9.00
2018-12-01T09:13:32.379Z,9.20
2018-12-01T09:16:00.829Z,9.30
2018-12-01T09:18:29.273Z,9.40
2018-12-01T09:20:57.996Z,9.60
2018-12-01T09:23:26.491Z,9.80
2018-12-01T09:25:54.918Z,10.20
2018-12-01T09:28:23.347Z,10.60
2018-12-01T09:30:51.728Z,10.90
2018-12-01T09:33:20.094Z,11.10
2018-12-01T09:35:48.577Z,11.10
2018-12-01T09:38:17.463Z,11.20
2018-12-01T09:40:46.441Z,10.80
2018-12-01T09:43:14.861Z,10.60
2018-12-01T09:45:43.289Z,10.40
2018-12-01T09:48:11.702Z,10.40
2018-12-01T09:50:40.085Z,10.70
2018-12-01T09:53:08.818Z,11.10
2018-12-01T09:55:37.250Z,11.40
2018-12-01T09:58:06.068Z,11.70
2018-12-01T10:00:34.512Z,11.90
2018-12-01T10:03:03.848Z,11.80
2018-12-01T10:05:32.574Z,11.60
2018-12-01T10:08:01.108Z,11.40
2018-12-01T10:10:29.659Z,11.50
2018-12-01T10:12:58.278Z,11.30
2018-12-01T10:15:28.570Z,11.30
2018-12-01T10:17:57.857Z,11.30
2018-12-01T10:20:28.546Z,11.10
2018-12-01T10:22:58.660Z,11.00
2018-12-01T10:25:27.998Z,11.00
2018-12-01T10:27:57.458Z,11.10
2018-12-01T10:30:26.831Z,11.50
2018-12-01T10:32:56.157Z,11.40
2018-12-01T10:35:26.513Z,11.50
2018-12-01T10:37:59.306Z,11.70
2018-12-01T10:40:28.739Z,12.00
2018-12-01T10:42:58.004Z,11.90
2018-12-01T10:45:27.380Z,11.80
2018-12-01T10:47:56.740Z,11.60
2018-12-01T10:50:26.125Z,11.00
2018-12-01T10:52:56.140Z,10.70
2018-12-01T10:55:28.269Z,10.60
2018-12-01T10:58:00.620Z,10.60
2018-12-01T11:00:35.342Z,10.80
2018-12-01T11:05:13.355Z,11.20
2018-12-01T11:07:43.049Z,11.00
2018-12-01T11:10:12.363Z,10.60
2018-12-01T11:12:41.728Z,10.60
2018-12-01T11:15:11.191Z,10.50
2018-12-01T11:17:40.930Z,10.60
2018-12-01T11:20:11.046Z,10.50
2018-12-01T11:22:40.806Z,10.50
2018-12-01T11:25:10.924Z,10.80
2018-12-01T11:27:39.830Z,10.80
2018-12-01T11:30:11.846Z,10.90
2018-12-01T11:32:40.439Z,10.90
2018-12-01T11:35:08.883Z,11.00
2018-12-01T11:37:37.681Z,10.80
2018-12-01T11:40:08.106Z,10.60
2018-12-01T11:42:36.577Z,10.50
2018-12-01T11:45:06.350Z,10.50
2018-12-01T11:47:35.149Z,10.40
2018-12-01T11:50:06.076Z,10.50
2018-12-01T11:52:34.536Z,10.70
2018-12-01T11:55:04.057Z,11.00
2018-12-01T11:57:33.430Z,11.30
2018-12-01T12:00:04.131Z,11.50
2018-12-01T12:02:34.685Z,11.50
2018-12-01T12:05:04.121Z,11.30
2018-12-01T12:07:44.822Z,11.20
2018-12-01T12:10:14.362Z,11.10
2018-12-01T12:12:43.738Z,10.70
2018-12-01T12:15:13.889Z,10.80
2018-12-01T12:17:45.795Z,10.80
2018-12-01T12:20:15.769Z,10.70
2018-12-01T12:22:45.211Z,10.60
2018-12-01T12:25:16.176Z,10.40
2018-12-01T12:27:46.375Z,10.30
2018-12-01T12:30:19.569Z,10.30
2018-12-01T12:32:51.678Z,10.30
2018-12-01T12:35:21.179Z,10.20
2018-12-01T12:37:54.807Z,10.10
2018-12-01T12:40:26.612Z,10.10
2018-12-01T12:42:57.536Z,10.00
2018-12-01T12:45:28.594Z,10.00
2018-12-01T12:47:58.030Z,9.90
2018-12-01T12:50:27.516Z,9.90
2018-12-01T12:52:57.190Z,9.90
2018-12-01T12:55:27.450Z,9.90
2018-12-01T12:57:56.777Z,9.90
2018-12-01T13:00:27.390Z,9.90
2018-12-01T13:03:00.977Z,9.90
2018-12-01T13:05:36.034Z,9.80
2018-12-01T13:08:05.996Z,9.80
2018-12-01T13:10:35.304Z,9.80
2018-12-01T13:13:05.245Z,9.90
2018-12-01T13:15:35.733Z,9.90
2018-12-01T13:18:06.544Z,9.90
2018-12-01T13:20:36.020Z,9.90
2018-12-01T13:23:05.789Z,10.00
2018-12-01T13:25:34.568Z,10.00
2018-12-01T13:28:05.789Z,10.00
2018-12-01T13:30:35.730Z,10.10
2018-12-01T13:33:04.510Z,10.10
2018-12-01T13:35:32.933Z,10.10
2018-12-01T13:38:01.900Z,10.10
2018-12-01T13:40:30.492Z,10.10
2018-12-01T13:43:01.329Z,10.20
2018-12-01T13:45:31.503Z,10.20
2018-12-01T13:48:00.197Z,11.70
2018-12-01T13:50:28.607Z,10.20
2018-12-01T13:52:57.691Z,10.20
2018-12-01T13:55:26.152Z,10.20
2018-12-01T13:57:54.509Z,10.20
2018-12-01T14:00:23.783Z,10.20
2018-12-01T14:02:52.212Z,10.20
2018-12-01T14:05:20.608Z,10.20
2018-12-01T14:07:49.065Z,10.20
2018-12-01T14:10:21.017Z,10.20
2018-12-01T14:12:50.077Z,10.10
2018-12-01T14:15:19.213Z,10.10
2018-12-01T14:17:47.964Z,10.00
2018-12-01T14:20:16.681Z,10.00
2018-12-01T14:22:45.737Z,9.90
2018-12-01T14:25:14.706Z,9.90
2018-12-01T14:27:43.853Z,9.90
2018-12-01T14:30:14.619Z,9.80
2018-12-01T14:32:43.140Z,9.70
2018-12-01T14:35:16.296Z,9.70
2018-12-01T14:37:45.525Z,9.60
2018-12-01T14:40:13.985Z,9.60
2018-12-01T14:42:42.675Z,9.60
2018-12-01T14:45:11.845Z,9.60
2018-12-01T14:47:40.307Z,9.60
2018-12-01T14:50:09.489Z,9.60
2018-12-01T14:52:37.875Z,9.60
2018-12-01T14:55:07.387Z,9.60
2018-12-01T14:57:35.799Z,9.60
2018-12-01T15:00:05.926Z,9.60
2018-12-01T15:02:34.354Z,9.60
2018-12-01T15:05:02.766Z,9.60
2018-12-01T15:07:31.178Z,9.70
2018-12-01T15:09:59.598Z,9.70
2018-12-01T15:12:28.188Z,9.70
2018-12-01T15:14:57.065Z,9.70
2018-12-01T15:17:25.148Z,9.70
2018-12-01T15:20:08.534Z,9.50
2018-12-01T15:22:36.985Z,9.70
2018-12-01T15:25:06.277Z,9.70
2018-12-01T15:27:35.719Z,9.60
2018-12-01T15:30:08.814Z,9.70
2018-12-01T15:32:37.378Z,9.70
2018-12-01T15:35:07.436Z,9.70
2018-12-01T15:37:35.853Z,9.70
2018-12-01T15:40:07.048Z,9.70
2018-12-01T15:42:35.923Z,9.70
2018-12-01T15:45:05.640Z,9.70
2018-12-01T15:47:34.458Z,9.70
2018-12-01T15:50:03.382Z,9.70
2018-12-01T15:52:31.813Z,9.70
2018-12-01T15:55:00.289Z,9.60
2018-12-01T15:57:28.802Z,9.70
2018-12-01T15:59:57.759Z,9.70
2018-12-01T16:02:26.471Z,9.70
2018-12-01T16:04:54.912Z,9.70
2018-12-01T16:07:23.864Z,9.70
2018-12-01T16:09:52.412Z,9.70
2018-12-01T16:12:20.829Z,9.70
2018-12-01T16:14:49.289Z,9.70
2018-12-01T16:17:17.711Z,9.60
2018-12-01T16:19:46.162Z,9.60
2018-12-01T16:22:14.594Z,9.70
2018-12-01T16:24:43.051Z,9.70
2018-12-01T16:27:11.515Z,9.60
2018-12-01T16:29:39.917Z,9.70
2018-12-01T16:32:08.343Z,9.60
2018-12-01T16:34:36.778Z,9.70
2018-12-01T16:37:05.485Z,9.60
2018-12-01T16:39:33.890Z,9.60
2018-12-01T16:42:02.357Z,9.60
2018-12-01T16:44:30.850Z,9.60
2018-12-01T16:46:59.325Z,9.60
2018-12-01T16:49:27.778Z,9.50
2018-12-01T16:51:56.294Z,9.50
2018-12-01T16:54:24.679Z,9.50
2018-12-01T16:56:53.210Z,9.40
2018-12-01T16:59:21.594Z,9.40
2018-12-01T17:01:50.085Z,9.40
2018-12-01T17:04:18.545Z,9.40
2018-12-01T17:06:46.989Z,9.40
2018-12-01T17:09:15.369Z,9.30
2018-12-01T17:11:44.029Z,9.30
2018-12-01T17:14:12.485Z,9.30
2018-12-01T17:16:40.889Z,9.30
2018-12-01T17:19:09.653Z,9.20
2018-12-01T17:21:38.886Z,9.30
2018-12-01T17:24:07.307Z,9.20
2018-12-01T17:26:35.937Z,9.20
2018-12-01T17:29:05.130Z,9.10
2018-12-01T17:31:33.629Z,9.10
2018-12-01T17:34:02.085Z,9.10
2018-12-01T17:36:30.545Z,9.10
2018-12-01T17:38:59.005Z,9.10
2018-12-01T17:41:28.611Z,9.10
2018-12-01T17:43:59.396Z,9.20
2018-12-01T17:46:27.810Z,9.20
2018-12-01T17:48:56.214Z,9.20
2018-12-01T17:51:24.866Z,9.20
2018-12-01T17:53:55.575Z,9.20
2018-12-01T17:56:24.194Z,9.10
2018-12-01T17:58:52.681Z,9.10
2018-12-01T18:01:21.481Z,9.20
2018-12-01T18:03:49.952Z,9.20
2018-12-01T18:06:18.325Z,9.20
2018-12-01T18:08:47.122Z,9.20
2018-12-01T18:11:15.723Z,9.30
2018-12-01T18:13:44.183Z,9.30
2018-12-01T18:16:13.575Z,9.20
2018-12-01T18:18:41.253Z,9.30
2018-12-01T18:21:09.769Z,9.20
2018-12-01T18:23:38.422Z,9.20
2018-12-01T18:26:07.501Z,9.20
2018-12-01T18:28:38.886Z,9.20
2018-12-01T18:31:11.425Z,9.10
2018-12-01T18:33:40.911Z,9.10
2018-12-01T18:36:10.285Z,9.20
2018-12-01T18:38:39.630Z,9.20
2018-12-01T18:41:08.486Z,9.20
2018-12-01T18:43:37.093Z,9.20
2018-12-01T18:46:07.400Z,9.20
2018-12-01T18:48:35.874Z,9.20
2018-12-01T18:51:04.749Z,9.20
2018-12-01T18:53:33.639Z,9.20
2018-12-01T18:56:02.122Z,9.20
2018-12-01T18:58:30.856Z,9.20
2018-12-01T19:00:59.238Z,9.20
2018-12-01T19:03:28.489Z,9.20
2018-12-01T19:05:56.880Z,9.20
2018-12-01T19:08:25.385Z,9.20
2018-12-01T19:10:54.130Z,9.20
2018-12-01T19:13:22.600Z,9.20
2018-12-01T19:15:51.045Z,9.20
2018-12-01T19:18:19.610Z,9.20
2018-12-01T19:20:48.217Z,9.10
2018-12-01T19:23:17.666Z,9.10
2018-12-01T19:25:46.781Z,9.10
2018-12-01T19:28:15.415Z,9.10
2018-12-01T19:30:43.865Z,9.10
2018-12-01T19:33:13.552Z,9.10
2018-12-01T19:35:42.730Z,9.00
2018-12-01T19:38:12.152Z,9.00
2018-12-01T19:40:40.705Z,9.00
2018-12-01T19:43:09.160Z,9.00
2018-12-01T19:45:37.673Z,9.00
2018-12-01T19:48:07.037Z,9.00
2018-12-01T19:50:37.827Z,9.00
2018-12-01T19:53:07.080Z,8.90
2018-12-01T19:55:35.514Z,9.20
2018-12-01T19:58:07.802Z,8.90
2018-12-01T20:00:36.257Z,8.90
2018-12-01T20:03:06.125Z,8.90
2018-12-01T20:05:34.578Z,8.90
2018-12-01T20:08:03.242Z,8.90
2018-12-01T20:10:37.784Z,9.00
2018-12-01T20:13:11.032Z,9.00
2018-12-01T20:15:41.463Z,9.00
2018-12-01T20:18:11.166Z,9.00
2018-12-01T20:20:39.937Z,9.00
2018-12-01T20:23:08.405Z,9.00
2018-12-01T20:25:36.826Z,9.00
2018-12-01T20:28:05.718Z,9.00
2018-12-01T20:30:34.113Z,9.00
2018-12-01T20:33:02.569Z,9.00
2018-12-01T20:35:33.049Z,9.00
2018-12-01T20:38:02.822Z,9.00
2018-12-01T20:40:31.196Z,9.00
2018-12-01T20:42:59.846Z,9.10
2018-12-01T20:45:28.228Z,9.10
2018-12-01T20:47:56.638Z,9.10
2018-12-01T20:50:25.104Z,9.10
2018-12-01T20:52:53.542Z,9.10
2018-12-01T20:55:23.022Z,9.10
2018-12-01T20:57:52.551Z,9.10
2018-12-01T21:00:21.011Z,9.10
2018-12-01T21:02:49.525Z,9.10
2018-12-01T21:05:18.782Z,9.10
2018-12-01T21:07:47.756Z,9.10
2018-12-01T21:10:18.054Z,9.10
2018-12-01T21:12:46.479Z,9.10
2018-12-01T21:15:14.922Z,9.10
2018-12-01T21:17:43.940Z,9.20
2018-12-01T21:20:13.085Z,9.10
2018-12-01T21:22:42.185Z,9.20
2018-12-01T21:25:13.173Z,9.20
2018-12-01T21:27:41.636Z,9.10
2018-12-01T21:30:10.901Z,9.20
2018-12-01T21:32:40.151Z,9.10
2018-12-01T21:35:09.481Z,9.20
2018-12-01T21:37:38.192Z,9.20
2018-12-01T21:40:12.668Z,9.20
2018-12-01T21:42:41.121Z,9.20
2018-12-01T21:45:10.332Z,9.20
2018-12-01T21:47:38.783Z,9.20
2018-12-01T21:50:10.870Z,9.20
2018-12-01T21:52:39.460Z,9.20
2018-12-01T21:55:09.040Z,9.20
2018-12-01T21:57:37.530Z,9.20
2018-12-01T22:00:09.989Z,9.30
2018-12-01T22:02:38.422Z,9.20
2018-12-01T22:05:08.429Z,9.20
2018-12-01T22:07:37.010Z,9.20
2018-12-01T22:10:07.353Z,9.10
2018-12-01T22:12:35.764Z,9.10
2018-12-01T22:15:04.290Z,9.10
2018-12-01T22:17:32.757Z,9.10
2018-12-01T22:20:01.145Z,9.10
2018-12-01T22:22:30.628Z,9.10
2018-12-01T22:24:59.223Z,9.10
2018-12-01T22:27:27.765Z,9.10
2018-12-01T22:29:56.162Z,9.10
2018-12-01T22:32:24.676Z,9.20
2018-12-01T22:34:53.050Z,9.20
2018-12-01T22:37:21.625Z,9.20
2018-12-01T22:39:50.009Z,9.20
2018-12-01T22:42:18.735Z,9.20
2018-12-01T22:44:47.140Z,9.20
2018-12-01T22:47:15.789Z,9.20
2018-12-01T22:49:44.200Z,9.20
2018-12-01T22:52:12.632Z,9.20
2018-12-01T22:54:41.308Z,9.20
2018-12-01T22:57:09.890Z,9.10
2018-12-01T22:59:38.573Z,9.20
2018-12-01T23:02:07.293Z,9.10
2018-12-01T23:04:35.852Z,9.10
2018-12-01T23:07:04.571Z,9.10
2018-12-01T23:09:32.973Z,9.10
2018-12-01T23:12:01.795Z,9.00
2018-12-01T23:14:30.239Z,9.00
2018-12-01T23:16:58.662Z,9.00
2018-12-01T23:19:27.189Z,8.90
2018-12-01T23:21:55.729Z,8.90
2018-12-01T23:24:24.261Z,9.00
2018-12-01T23:26:52.929Z,9.00
2018-12-01T23:29:21.367Z,9.10
2018-12-01T23:31:50.133Z,9.10
2018-12-01T23:34:18.589Z,9.10
2018-12-01T23:36:47.070Z,9.20
2018-12-01T23:39:15.530Z,9.20
2018-12-01T23:41:43.929Z,9.20
2018-12-01T23:44:14.507Z,9.20
2018-12-01T23:46:42.987Z,9.30
2018-12-01T23:49:11.582Z,9.30
2018-12-01T23:51:40.077Z,9.30
2018-12-01T23:54:08.571Z,9.30
2018-12-01T23:56:36.986Z,9.30
2018-12-01T23:59:05.387Z,9.40
